sensor_id;sensor_type;location;lat;lon;timestamp;pressure;altitude;pressure_sealevel;temperature;humidity
77212;BME280;66206;0.000;0.000;2023-02-10T00:01:01;99652.35;;;23.27;22.79
77212;BME280;66206;0.000;0.000;2023-02-10T00:03:27;99647.64;;;23.27;22.89
77212;BME280;66206;0.000;0.000;2023-02-10T00:05:54;99653.05;;;23.30;22.83
77212;BME280;66206;0.000;0.000;2023-02-10T00:08:21;99645.38;;;23.15;22.87
77212;BME280;66206;0.000;0.000;2023-02-10T00:10:48;99632.43;;;22.88;23.24
77212;BME280;66206;0.000;0.000;2023-02-10T00:13:14;99632.64;;;22.95;23.33
77212;BME280;66206;0.000;0.000;2023-02-10T00:15:41;99640.00;;;22.68;23.61
77212;BME280;66206;0.000;0.000;2023-02-10T00:18:08;99647.05;;;22.55;23.79
77212;BME280;66206;0.000;0.000;2023-02-10T00:20:34;99646.33;;;22.57;23.94
77212;BME280;66206;0.000;0.000;2023-02-10T00:23:01;99641.95;;;22.34;24.19
77212;BME280;66206;0.000;0.000;2023-02-10T00:25:28;99648.32;;;22.32;24.35
77212;BME280;66206;0.000;0.000;2023-02-10T00:27:54;99650.98;;;22.16;24.67
77212;BME280;66206;0.000;0.000;2023-02-10T00:30:21;99648.41;;;22.05;24.74
77212;BME280;66206;0.000;0.000;2023-02-10T00:32:47;99650.20;;;21.91;24.74
77212;BME280;66206;0.000;0.000;2023-02-10T00:35:14;99655.31;;;21.76;24.73
77212;BME280;66206;0.000;0.000;2023-02-10T00:37:41;99657.81;;;21.58;24.66
77212;BME280;66206;0.000;0.000;2023-02-10T00:40:08;99659.79;;;21.94;24.47
77212;BME280;66206;0.000;0.000;2023-02-10T00:42:35;99668.05;;;21.87;24.39
77212;BME280;66206;0.000;0.000;2023-02-10T00:45:01;99671.45;;;21.71;24.45
77212;BME280;66206;0.000;0.000;2023-02-10T00:47:28;99667.36;;;21.67;24.59
77212;BME280;66206;0.000;0.000;2023-02-10T00:49:55;99667.51;;;21.62;24.61
77212;BME280;66206;0.000;0.000;2023-02-10T00:52:21;99668.73;;;21.49;24.71
77212;BME280;66206;0.000;0.000;2023-02-10T00:54:48;99668.17;;;21.58;24.64
77212;BME280;66206;0.000;0.000;2023-02-10T00:57:15;99667.39;;;21.44;24.71
77212;BME280;66206;0.000;0.000;2023-02-10T00:59:41;99670.08;;;21.66;24.45
77212;BME280;66206;0.000;0.000;2023-02-10T01:02:08;99666.10;;;21.50;24.50
77212;BME280;66206;0.000;0.000;2023-02-10T01:04:35;99667.96;;;21.46;24.46
77212;BME280;66206;0.000;0.000;2023-02-10T01:07:02;99673.26;;;21.47;24.38
77212;BME280;66206;0.000;0.000;2023-02-10T01:09:29;99673.55;;;21.39;24.36
77212;BME280;66206;0.000;0.000;2023-02-10T01:11:55;99678.86;;;21.57;24.29
77212;BME280;66206;0.000;0.000;2023-02-10T01:14:22;99681.71;;;21.43;24.36
77212;BME280;66206;0.000;0.000;2023-02-10T01:16:49;99676.75;;;21.30;24.44
77212;BME280;66206;0.000;0.000;2023-02-10T01:19:16;99678.15;;;21.40;24.34
77212;BME280;66206;0.000;0.000;2023-02-10T01:21:42;99678.98;;;21.15;24.61
77212;BME280;66206;0.000;0.000;2023-02-10T01:24:09;99681.67;;;21.18;24.54
77212;BME280;66206;0.000;0.000;2023-02-10T01:26:36;99684.74;;;21.28;24.33
77212;BME280;66206;0.000;0.000;2023-02-10T01:29:03;99684.65;;;21.18;24.42
77212;BME280;66206;0.000;0.000;2023-02-10T01:31:29;99679.42;;;21.16;24.42
77212;BME280;66206;0.000;0.000;2023-02-10T01:33:56;99683.63;;;20.97;24.55
77212;BME280;66206;0.000;0.000;2023-02-10T01:36:23;99683.70;;;21.14;24.47
77212;BME280;66206;0.000;0.000;2023-02-10T01:38:51;99682.54;;;21.23;24.52
77212;BME280;66206;0.000;0.000;2023-02-10T01:41:19;99684.93;;;21.06;24.54
77212;BME280;66206;0.000;0.000;2023-02-10T01:43:54;99689.16;;;21.22;24.44
77212;BME280;66206;0.000;0.000;2023-02-10T01:46:16;99693.00;;;21.20;24.35
77212;BME280;66206;0.000;0.000;2023-02-10T01:48:42;99692.57;;;20.88;24.63
77212;BME280;66206;0.000;0.000;2023-02-10T01:51:09;99697.81;;;21.02;24.40
77212;BME280;66206;0.000;0.000;2023-02-10T01:53:36;99698.82;;;20.96;24.47
77212;BME280;66206;0.000;0.000;2023-02-10T01:56:03;99699.88;;;21.07;24.37
77212;BME280;66206;0.000;0.000;2023-02-10T01:58:31;99696.53;;;21.10;24.42
77212;BME280;66206;0.000;0.000;2023-02-10T02:00:58;99694.73;;;21.15;24.33
77212;BME280;66206;0.000;0.000;2023-02-10T02:03:25;99694.94;;;21.01;24.33
77212;BME280;66206;0.000;0.000;2023-02-10T02:05:52;99695.17;;;20.76;24.53
77212;BME280;66206;0.000;0.000;2023-02-10T02:08:19;99691.92;;;20.83;24.50
77212;BME280;66206;0.000;0.000;2023-02-10T02:10:51;99686.99;;;20.75;24.48
77212;BME280;66206;0.000;0.000;2023-02-10T02:13:15;99688.53;;;20.79;24.42
77212;BME280;66206;0.000;0.000;2023-02-10T02:15:46;99687.05;;;20.79;24.48
77212;BME280;66206;0.000;0.000;2023-02-10T02:18:11;99685.22;;;20.73;24.46
77212;BME280;66206;0.000;0.000;2023-02-10T02:20:43;99680.21;;;20.76;24.49
77212;BME280;66206;0.000;0.000;2023-02-10T02:23:13;99684.25;;;20.88;24.42
77212;BME280;66206;0.000;0.000;2023-02-10T02:25:33;99683.90;;;20.68;24.45
77212;BME280;66206;0.000;0.000;2023-02-10T02:28:01;99684.04;;;20.77;24.42
77212;BME280;66206;0.000;0.000;2023-02-10T02:30:36;99689.22;;;20.64;24.42
77212;BME280;66206;0.000;0.000;2023-02-10T02:32:53;99692.92;;;20.76;24.47
77212;BME280;66206;0.000;0.000;2023-02-10T02:35:21;99698.22;;;20.78;24.25
77212;BME280;66206;0.000;0.000;2023-02-10T02:37:49;99704.03;;;20.63;24.49
77212;BME280;66206;0.000;0.000;2023-02-10T02:40:16;99706.99;;;20.47;24.54
77212;BME280;66206;0.000;0.000;2023-02-10T02:42:43;99709.06;;;20.73;24.43
77212;BME280;66206;0.000;0.000;2023-02-10T02:45:10;99712.75;;;20.53;24.37
77212;BME280;66206;0.000;0.000;2023-02-10T02:47:43;99714.55;;;20.38;24.43
77212;BME280;66206;0.000;0.000;2023-02-10T02:50:09;99720.41;;;20.67;24.31
77212;BME280;66206;0.000;0.000;2023-02-10T02:52:36;99718.40;;;20.43;24.33
77212;BME280;66206;0.000;0.000;2023-02-10T02:55:03;99715.93;;;20.71;24.15
77212;BME280;66206;0.000;0.000;2023-02-10T02:57:28;99710.44;;;20.64;24.22
77212;BME280;66206;0.000;0.000;2023-02-10T02:59:56;99714.99;;;20.52;24.25
77212;BME280;66206;0.000;0.000;2023-02-10T03:02:20;99714.56;;;20.73;24.07
77212;BME280;66206;0.000;0.000;2023-02-10T03:04:47;99721.19;;;20.77;24.02
77212;BME280;66206;0.000;0.000;2023-02-10T03:07:14;99721.83;;;20.65;24.13
77212;BME280;66206;0.000;0.000;2023-02-10T03:09:40;99718.64;;;21.01;23.82
77212;BME280;66206;0.000;0.000;2023-02-10T03:12:07;99711.01;;;20.87;23.73
77212;BME280;66206;0.000;0.000;2023-02-10T03:14:34;99711.89;;;20.92;23.62
77212;BME280;66206;0.000;0.000;2023-02-10T03:17:01;99710.02;;;21.21;23.34
77212;BME280;66206;0.000;0.000;2023-02-10T03:19:27;99708.31;;;20.98;23.29
77212;BME280;66206;0.000;0.000;2023-02-10T03:21:54;99712.42;;;21.15;23.12
77212;BME280;66206;0.000;0.000;2023-02-10T03:24:21;99710.93;;;21.29;23.06
77212;BME280;66206;0.000;0.000;2023-02-10T03:26:47;99714.81;;;21.36;22.86
77212;BME280;66206;0.000;0.000;2023-02-10T03:29:15;99707.89;;;21.42;22.76
77212;BME280;66206;0.000;0.000;2023-02-10T03:31:42;99705.95;;;21.46;22.82
77212;BME280;66206;0.000;0.000;2023-02-10T03:34:08;99710.27;;;21.54;22.78
77212;BME280;66206;0.000;0.000;2023-02-10T03:36:35;99712.48;;;21.59;22.61
77212;BME280;66206;0.000;0.000;2023-02-10T03:39:02;99711.89;;;21.57;22.63
77212;BME280;66206;0.000;0.000;2023-02-10T03:41:29;99713.24;;;21.51;22.67
77212;BME280;66206;0.000;0.000;2023-02-10T03:43:56;99711.06;;;21.52;22.46
77212;BME280;66206;0.000;0.000;2023-02-10T03:46:22;99712.25;;;21.97;22.23
77212;BME280;66206;0.000;0.000;2023-02-10T03:48:49;99716.92;;;22.01;22.35
77212;BME280;66206;0.000;0.000;2023-02-10T03:51:16;99719.89;;;21.90;22.48
77212;BME280;66206;0.000;0.000;2023-02-10T03:53:42;99724.20;;;21.88;22.54
77212;BME280;66206;0.000;0.000;2023-02-10T03:56:09;99724.29;;;21.83;22.59
77212;BME280;66206;0.000;0.000;2023-02-10T03:58:36;99724.63;;;21.83;22.56
77212;BME280;66206;0.000;0.000;2023-02-10T04:01:07;99724.36;;;21.74;22.63
77212;BME280;66206;0.000;0.000;2023-02-10T04:03:29;99725.38;;;21.77;22.60
77212;BME280;66206;0.000;0.000;2023-02-10T04:05:56;99725.31;;;21.85;22.57
77212;BME280;66206;0.000;0.000;2023-02-10T04:08:22;99727.94;;;21.76;22.59
77212;BME280;66206;0.000;0.000;2023-02-10T04:10:49;99730.11;;;21.79;22.61
77212;BME280;66206;0.000;0.000;2023-02-10T04:13:15;99731.79;;;21.77;22.61
77212;BME280;66206;0.000;0.000;2023-02-10T04:15:42;99736.33;;;21.83;22.60
77212;BME280;66206;0.000;0.000;2023-02-10T04:18:09;99737.24;;;21.87;22.58
77212;BME280;66206;0.000;0.000;2023-02-10T04:20:35;99744.95;;;21.91;22.56
77212;BME280;66206;0.000;0.000;2023-02-10T04:23:02;99749.28;;;21.90;22.53
77212;BME280;66206;0.000;0.000;2023-02-10T04:25:29;99751.30;;;21.99;22.51
77212;BME280;66206;0.000;0.000;2023-02-10T04:27:55;99757.17;;;21.87;22.49
77212;BME280;66206;0.000;0.000;2023-02-10T04:30:22;99759.62;;;21.98;22.52
77212;BME280;66206;0.000;0.000;2023-02-10T04:32:48;99758.92;;;21.89;22.46
77212;BME280;66206;0.000;0.000;2023-02-10T04:35:15;99758.56;;;21.97;22.49
77212;BME280;66206;0.000;0.000;2023-02-10T04:37:42;99763.88;;;22.07;22.40
77212;BME280;66206;0.000;0.000;2023-02-10T04:40:09;99765.74;;;21.98;22.43
77212;BME280;66206;0.000;0.000;2023-02-10T04:42:35;99765.45;;;21.94;22.37
77212;BME280;66206;0.000;0.000;2023-02-10T04:45:02;99769.39;;;22.06;22.35
77212;BME280;66206;0.000;0.000;2023-02-10T04:47:29;99771.67;;;22.01;22.34
77212;BME280;66206;0.000;0.000;2023-02-10T04:49:55;99772.81;;;21.94;22.26
77212;BME280;66206;0.000;0.000;2023-02-10T04:52:22;99772.80;;;22.00;22.24
77212;BME280;66206;0.000;0.000;2023-02-10T04:54:49;99777.66;;;22.07;22.24
77212;BME280;66206;0.000;0.000;2023-02-10T04:57:15;99778.07;;;22.00;22.23
77212;BME280;66206;0.000;0.000;2023-02-10T04:59:42;99781.25;;;22.03;22.19
77212;BME280;66206;0.000;0.000;2023-02-10T05:02:09;99782.52;;;22.16;22.15
77212;BME280;66206;0.000;0.000;2023-02-10T05:04:36;99788.12;;;22.12;22.16
77212;BME280;66206;0.000;0.000;2023-02-10T05:07:02;99785.37;;;21.99;22.19
77212;BME280;66206;0.000;0.000;2023-02-10T05:09:29;99786.14;;;22.02;22.22
77212;BME280;66206;0.000;0.000;2023-02-10T05:11:56;99787.14;;;22.07;22.20
77212;BME280;66206;0.000;0.000;2023-02-10T05:14:22;99789.26;;;21.99;22.18
77212;BME280;66206;0.000;0.000;2023-02-10T05:16:49;99786.19;;;22.11;22.22
77212;BME280;66206;0.000;0.000;2023-02-10T05:19:16;99779.91;;;22.00;22.18
77212;BME280;66206;0.000;0.000;2023-02-10T05:21:42;99778.86;;;21.90;22.30
77212;BME280;66206;0.000;0.000;2023-02-10T05:24:09;99774.86;;;22.05;22.18
77212;BME280;66206;0.000;0.000;2023-02-10T05:26:35;99772.23;;;21.98;22.20
77212;BME280;66206;0.000;0.000;2023-02-10T05:29:02;99773.76;;;21.92;22.26
77212;BME280;66206;0.000;0.000;2023-02-10T05:31:29;99780.36;;;21.92;22.27
77212;BME280;66206;0.000;0.000;2023-02-10T05:33:55;99781.67;;;21.88;22.19
77212;BME280;66206;0.000;0.000;2023-02-10T05:36:22;99783.60;;;21.95;22.18
77212;BME280;66206;0.000;0.000;2023-02-10T05:38:49;99794.55;;;21.89;22.17
77212;BME280;66206;0.000;0.000;2023-02-10T05:41:15;99799.00;;;22.04;22.17
77212;BME280;66206;0.000;0.000;2023-02-10T05:43:42;99798.93;;;21.97;22.08
77212;BME280;66206;0.000;0.000;2023-02-10T05:46:09;99801.75;;;21.95;22.11
77212;BME280;66206;0.000;0.000;2023-02-10T05:48:35;99805.79;;;21.95;22.13
77212;BME280;66206;0.000;0.000;2023-02-10T05:51:02;99806.25;;;21.91;22.14
77212;BME280;66206;0.000;0.000;2023-02-10T05:53:29;99809.16;;;21.92;22.14
77212;BME280;66206;0.000;0.000;2023-02-10T05:55:55;99807.35;;;21.98;22.08
77212;BME280;66206;0.000;0.000;2023-02-10T05:58:22;99806.21;;;21.90;22.07
77212;BME280;66206;0.000;0.000;2023-02-10T06:00:48;99805.85;;;21.89;22.06
77212;BME280;66206;0.000;0.000;2023-02-10T06:03:15;99811.87;;;21.91;22.03
77212;BME280;66206;0.000;0.000;2023-02-10T06:05:42;99811.94;;;22.07;21.97
77212;BME280;66206;0.000;0.000;2023-02-10T06:08:09;99810.09;;;21.97;22.00
77212;BME280;66206;0.000;0.000;2023-02-10T06:10:35;99809.40;;;21.99;21.93
77212;BME280;66206;0.000;0.000;2023-02-10T06:13:02;99813.57;;;22.03;21.91
77212;BME280;66206;0.000;0.000;2023-02-10T06:15:28;99821.32;;;22.06;21.94
77212;BME280;66206;0.000;0.000;2023-02-10T06:17:55;99829.29;;;22.00;21.95
77212;BME280;66206;0.000;0.000;2023-02-10T06:20:22;99832.79;;;21.96;21.94
77212;BME280;66206;0.000;0.000;2023-02-10T06:22:48;99836.53;;;21.92;21.93
77212;BME280;66206;0.000;0.000;2023-02-10T06:25:15;99839.03;;;21.97;21.92
77212;BME280;66206;0.000;0.000;2023-02-10T06:27:42;99839.80;;;21.98;21.89
77212;BME280;66206;0.000;0.000;2023-02-10T06:30:09;99841.31;;;22.03;21.91
77212;BME280;66206;0.000;0.000;2023-02-10T06:32:36;99845.64;;;22.12;21.83
77212;BME280;66206;0.000;0.000;2023-02-10T06:35:03;99850.93;;;22.04;21.86
77212;BME280;66206;0.000;0.000;2023-02-10T06:37:30;99854.45;;;21.89;21.90
77212;BME280;66206;0.000;0.000;2023-02-10T06:39:56;99863.46;;;22.06;21.85
77212;BME280;66206;0.000;0.000;2023-02-10T06:42:23;99867.28;;;21.99;21.86
77212;BME280;66206;0.000;0.000;2023-02-10T06:44:50;99868.71;;;22.07;21.88
77212;BME280;66206;0.000;0.000;2023-02-10T06:47:16;99871.26;;;21.99;21.84
77212;BME280;66206;0.000;0.000;2023-02-10T06:49:43;99876.18;;;22.01;21.82
77212;BME280;66206;0.000;0.000;2023-02-10T06:52:09;99880.15;;;22.02;21.79
77212;BME280;66206;0.000;0.000;2023-02-10T06:54:36;99879.64;;;21.90;21.79
77212;BME280;66206;0.000;0.000;2023-02-10T06:57:03;99886.71;;;21.93;21.88
77212;BME280;66206;0.000;0.000;2023-02-10T06:59:29;99888.82;;;21.95;21.85
77212;BME280;66206;0.000;0.000;2023-02-10T07:01:58;99891.27;;;21.95;21.81
77212;BME280;66206;0.000;0.000;2023-02-10T07:04:25;99887.69;;;21.98;21.79
77212;BME280;66206;0.000;0.000;2023-02-10T07:06:51;99889.26;;;22.08;21.78
77212;BME280;66206;0.000;0.000;2023-02-10T07:09:18;99889.98;;;21.98;21.76
77212;BME280;66206;0.000;0.000;2023-02-10T07:11:45;99890.05;;;22.02;21.73
77212;BME280;66206;0.000;0.000;2023-02-10T07:14:11;99885.05;;;21.91;21.73
77212;BME280;66206;0.000;0.000;2023-02-10T07:16:38;99884.20;;;21.93;21.78
77212;BME280;66206;0.000;0.000;2023-02-10T07:19:05;99886.44;;;21.97;21.71
77212;BME280;66206;0.000;0.000;2023-02-10T07:21:31;99881.36;;;22.02;21.70
77212;BME280;66206;0.000;0.000;2023-02-10T07:23:58;99878.09;;;22.04;21.69
77212;BME280;66206;0.000;0.000;2023-02-10T07:26:25;99883.24;;;21.98;21.71
77212;BME280;66206;0.000;0.000;2023-02-10T07:28:51;99884.45;;;21.95;23.85
77212;BME280;66206;0.000;0.000;2023-02-10T07:31:18;99880.54;;;21.73;25.66
77212;BME280;66206;0.000;0.000;2023-02-10T07:33:45;99880.55;;;21.71;24.97
77212;BME280;66206;0.000;0.000;2023-02-10T07:36:11;99883.75;;;21.70;24.58
77212;BME280;66206;0.000;0.000;2023-02-10T07:38:38;99879.48;;;21.67;24.08
77212;BME280;66206;0.000;0.000;2023-02-10T07:41:07;99879.09;;;21.55;24.55
77212;BME280;66206;0.000;0.000;2023-02-10T07:43:34;99882.29;;;21.81;24.40
77212;BME280;66206;0.000;0.000;2023-02-10T07:46:00;99885.05;;;21.71;24.09
77212;BME280;66206;0.000;0.000;2023-02-10T07:48:27;99880.79;;;21.53;24.34
77212;BME280;66206;0.000;0.000;2023-02-10T07:50:54;99878.47;;;21.80;24.33
77212;BME280;66206;0.000;0.000;2023-02-10T07:53:21;99879.32;;;21.66;24.21
77212;BME280;66206;0.000;0.000;2023-02-10T07:55:47;99877.69;;;21.57;24.42
77212;BME280;66206;0.000;0.000;2023-02-10T07:58:14;99879.36;;;21.51;24.32
77212;BME280;66206;0.000;0.000;2023-02-10T08:00:41;99878.00;;;21.70;24.09
77212;BME280;66206;0.000;0.000;2023-02-10T08:03:08;99879.53;;;21.56;24.19
77212;BME280;66206;0.000;0.000;2023-02-10T08:05:38;99884.11;;;21.88;24.33
77212;BME280;66206;0.000;0.000;2023-02-10T08:08:04;99885.20;;;21.65;25.79
77212;BME280;66206;0.000;0.000;2023-02-10T08:10:31;99893.43;;;22.00;23.97
77212;BME280;66206;0.000;0.000;2023-02-10T08:12:58;99893.88;;;22.07;23.77
77212;BME280;66206;0.000;0.000;2023-02-10T08:15:24;99897.84;;;22.17;23.89
77212;BME280;66206;0.000;0.000;2023-02-10T08:17:51;99894.22;;;22.33;23.63
77212;BME280;66206;0.000;0.000;2023-02-10T08:20:17;99900.98;;;22.24;23.95
77212;BME280;66206;0.000;0.000;2023-02-10T08:22:44;99898.24;;;22.40;23.93
77212;BME280;66206;0.000;0.000;2023-02-10T08:25:11;99903.71;;;22.76;25.65
77212;BME280;66206;0.000;0.000;2023-02-10T08:27:37;99905.57;;;23.36;23.69
77212;BME280;66206;0.000;0.000;2023-02-10T08:30:04;99910.19;;;23.11;23.68
77212;BME280;66206;0.000;0.000;2023-02-10T08:32:31;99915.79;;;23.46;23.38
77212;BME280;66206;0.000;0.000;2023-02-10T08:34:58;99920.66;;;24.14;22.60
77212;BME280;66206;0.000;0.000;2023-02-10T08:37:24;99918.44;;;24.66;22.11
77212;BME280;66206;0.000;0.000;2023-02-10T08:39:51;99923.85;;;25.15;21.67
77212;BME280;66206;0.000;0.000;2023-02-10T08:42:18;99920.18;;;24.99;21.73
77212;BME280;66206;0.000;0.000;2023-02-10T08:44:44;99923.51;;;25.20;21.66
77212;BME280;66206;0.000;0.000;2023-02-10T08:47:11;99922.72;;;24.98;21.71
77212;BME280;66206;0.000;0.000;2023-02-10T08:49:38;99918.67;;;24.16;22.39
77212;BME280;66206;0.000;0.000;2023-02-10T08:52:04;99919.57;;;24.66;21.67
77212;BME280;66206;0.000;0.000;2023-02-10T08:54:31;99921.49;;;24.90;21.31
77212;BME280;66206;0.000;0.000;2023-02-10T08:56:58;99920.23;;;24.30;21.71
77212;BME280;66206;0.000;0.000;2023-02-10T08:59:25;99921.14;;;24.10;21.74
77212;BME280;66206;0.000;0.000;2023-02-10T09:01:52;99919.36;;;24.55;21.65
77212;BME280;66206;0.000;0.000;2023-02-10T09:04:19;99917.73;;;25.05;21.13
77212;BME280;66206;0.000;0.000;2023-02-10T09:06:46;99920.60;;;24.83;21.40
77212;BME280;66206;0.000;0.000;2023-02-10T09:09:13;99925.88;;;24.66;21.56
77212;BME280;66206;0.000;0.000;2023-02-10T09:11:40;99928.04;;;24.14;21.97
77212;BME280;66206;0.000;0.000;2023-02-10T09:14:07;99937.23;;;24.20;21.84
77212;BME280;66206;0.000;0.000;2023-02-10T09:16:34;99938.57;;;24.71;21.45
77212;BME280;66206;0.000;0.000;2023-02-10T09:19:01;99938.56;;;24.91;21.26
77212;BME280;66206;0.000;0.000;2023-02-10T09:21:29;99940.76;;;24.67;21.29
77212;BME280;66206;0.000;0.000;2023-02-10T09:23:55;99944.14;;;24.34;21.80
77212;BME280;66206;0.000;0.000;2023-02-10T09:26:22;99941.77;;;24.31;21.58
77212;BME280;66206;0.000;0.000;2023-02-10T09:28:49;99943.20;;;24.48;21.57
77212;BME280;66206;0.000;0.000;2023-02-10T09:31:16;99944.41;;;24.89;21.22
77212;BME280;66206;0.000;0.000;2023-02-10T09:33:43;99947.80;;;24.78;21.30
77212;BME280;66206;0.000;0.000;2023-02-10T09:36:12;99951.04;;;24.63;21.59
77212;BME280;66206;0.000;0.000;2023-02-10T09:38:39;99949.33;;;24.40;21.38
77212;BME280;66206;0.000;0.000;2023-02-10T09:41:08;99950.88;;;24.49;21.39
77212;BME280;66206;0.000;0.000;2023-02-10T09:43:44;99948.23;;;25.08;21.09
77212;BME280;66206;0.000;0.000;2023-02-10T09:46:05;99950.47;;;25.21;20.90
77212;BME280;66206;0.000;0.000;2023-02-10T09:48:31;99951.40;;;25.42;20.75
77212;BME280;66206;0.000;0.000;2023-02-10T09:50:59;99955.49;;;24.85;21.02
77212;BME280;66206;0.000;0.000;2023-02-10T09:53:26;99951.32;;;24.39;21.50
77212;BME280;66206;0.000;0.000;2023-02-10T09:55:55;99949.40;;;24.66;21.32
77212;BME280;66206;0.000;0.000;2023-02-10T09:58:23;99952.69;;;24.96;21.91
77212;BME280;66206;0.000;0.000;2023-02-10T10:00:52;99949.15;;;25.72;20.59
77212;BME280;66206;0.000;0.000;2023-02-10T10:03:22;99951.57;;;25.07;20.83
77212;BME280;66206;0.000;0.000;2023-02-10T10:05:47;99955.08;;;24.91;20.95
77212;BME280;66206;0.000;0.000;2023-02-10T10:08:16;99954.75;;;24.69;21.08
77212;BME280;66206;0.000;0.000;2023-02-10T10:10:39;99953.16;;;25.25;20.65
77212;BME280;66206;0.000;0.000;2023-02-10T10:13:10;99947.66;;;25.35;20.60
77212;BME280;66206;0.000;0.000;2023-02-10T10:15:36;99952.04;;;25.13;20.77
77212;BME280;66206;0.000;0.000;2023-02-10T10:18:02;99950.71;;;24.92;20.87
77212;BME280;66206;0.000;0.000;2023-02-10T10:20:28;99951.59;;;24.95;20.97
77212;BME280;66206;0.000;0.000;2023-02-10T10:22:55;99943.62;;;24.71;21.23
77212;BME280;66206;0.000;0.000;2023-02-10T10:25:30;99945.83;;;25.09;20.91
77212;BME280;66206;0.000;0.000;2023-02-10T10:27:54;99951.47;;;25.15;20.71
77212;BME280;66206;0.000;0.000;2023-02-10T10:30:33;99952.58;;;25.12;20.74
77212;BME280;66206;0.000;0.000;2023-02-10T10:32:52;99950.29;;;24.92;20.86
77212;BME280;66206;0.000;0.000;2023-02-10T10:35:18;99950.02;;;24.97;20.76
77212;BME280;66206;0.000;0.000;2023-02-10T10:37:45;99951.50;;;25.03;20.82
77212;BME280;66206;0.000;0.000;2023-02-10T10:40:14;99952.13;;;24.91;21.14
77212;BME280;66206;0.000;0.000;2023-02-10T10:42:41;99952.37;;;24.95;21.01
77212;BME280;66206;0.000;0.000;2023-02-10T10:45:04;99950.06;;;25.03;20.96
77212;BME280;66206;0.000;0.000;2023-02-10T10:47:36;99939.01;;;25.31;20.79
77212;BME280;66206;0.000;0.000;2023-02-10T10:49:59;99941.74;;;24.93;20.99
77212;BME280;66206;0.000;0.000;2023-02-10T10:52:27;99937.80;;;25.26;20.82
77212;BME280;66206;0.000;0.000;2023-02-10T10:54:54;99934.57;;;25.29;20.83
77212;BME280;66206;0.000;0.000;2023-02-10T10:57:21;99932.74;;;25.25;20.74
77212;BME280;66206;0.000;0.000;2023-02-10T10:59:49;99930.49;;;25.13;20.97
77212;BME280;66206;0.000;0.000;2023-02-10T11:02:18;99932.70;;;25.20;20.88
77212;BME280;66206;0.000;0.000;2023-02-10T11:04:45;99933.21;;;25.44;20.70
77212;BME280;66206;0.000;0.000;2023-02-10T11:07:12;99934.81;;;25.03;21.24
77212;BME280;66206;0.000;0.000;2023-02-10T11:09:39;99930.04;;;25.41;20.82
77212;BME280;66206;0.000;0.000;2023-02-10T11:12:06;99929.13;;;24.63;20.96
77212;BME280;66206;0.000;0.000;2023-02-10T11:14:37;99927.85;;;24.47;22.05
77212;BME280;66206;0.000;0.000;2023-02-10T11:17:04;99926.66;;;23.98;22.39
77212;BME280;66206;0.000;0.000;2023-02-10T11:19:31;99924.26;;;23.98;22.40
77212;BME280;66206;0.000;0.000;2023-02-10T11:21:59;99928.57;;;23.99;22.44
77212;BME280;66206;0.000;0.000;2023-02-10T11:24:26;99921.67;;;23.82;22.59
77212;BME280;66206;0.000;0.000;2023-02-10T11:26:54;99926.66;;;23.92;22.52
77212;BME280;66206;0.000;0.000;2023-02-10T11:29:21;99921.67;;;24.11;22.35
77212;BME280;66206;0.000;0.000;2023-02-10T11:31:50;99918.02;;;24.29;22.21
77212;BME280;66206;0.000;0.000;2023-02-10T11:34:18;99918.54;;;24.44;21.97
77212;BME280;66206;0.000;0.000;2023-02-10T11:36:46;99916.13;;;24.40;21.99
77212;BME280;66206;0.000;0.000;2023-02-10T11:39:16;99912.14;;;24.19;22.29
77212;BME280;66206;0.000;0.000;2023-02-10T11:41:40;99913.05;;;24.56;21.89
77212;BME280;66206;0.000;0.000;2023-02-10T11:44:14;99913.27;;;24.94;21.31
77212;BME280;66206;0.000;0.000;2023-02-10T11:46:37;99911.65;;;24.75;21.30
77212;BME280;66206;0.000;0.000;2023-02-10T11:49:04;99907.17;;;24.89;21.22
77212;BME280;66206;0.000;0.000;2023-02-10T11:51:30;99901.61;;;25.03;21.09
77212;BME280;66206;0.000;0.000;2023-02-10T11:53:58;99900.14;;;24.88;21.09
77212;BME280;66206;0.000;0.000;2023-02-10T11:56:26;99897.50;;;24.88;21.14
77212;BME280;66206;0.000;0.000;2023-02-10T11:58:56;99898.59;;;24.94;21.12
77212;BME280;66206;0.000;0.000;2023-02-10T12:01:21;99898.06;;;24.75;21.24
77212;BME280;66206;0.000;0.000;2023-02-10T12:03:53;99902.67;;;24.86;21.26
77212;BME280;66206;0.000;0.000;2023-02-10T12:06:18;99905.90;;;24.88;21.25
77212;BME280;66206;0.000;0.000;2023-02-10T12:08:47;99910.49;;;24.86;21.19
77212;BME280;66206;0.000;0.000;2023-02-10T12:11:14;99911.17;;;24.80;21.14
77212;BME280;66206;0.000;0.000;2023-02-10T12:13:40;99910.08;;;24.75;21.26
77212;BME280;66206;0.000;0.000;2023-02-10T12:16:11;99905.05;;;24.58;21.44
77212;BME280;66206;0.000;0.000;2023-02-10T12:18:37;99904.31;;;24.70;21.40
77212;BME280;66206;0.000;0.000;2023-02-10T12:21:05;99893.34;;;24.89;21.18
77212;BME280;66206;0.000;0.000;2023-02-10T12:23:49;99892.85;;;24.54;21.55
77212;BME280;66206;0.000;0.000;2023-02-10T12:25:56;99883.26;;;24.92;21.52
77212;BME280;66206;0.000;0.000;2023-02-10T12:28:26;99883.51;;;24.95;21.51
77212;BME280;66206;0.000;0.000;2023-02-10T12:30:53;99879.87;;;24.66;21.56
77212;BME280;66206;0.000;0.000;2023-02-10T12:33:24;99882.85;;;24.69;21.56
77212;BME280;66206;0.000;0.000;2023-02-10T12:35:46;99882.76;;;24.53;21.67
77212;BME280;66206;0.000;0.000;2023-02-10T12:38:15;99876.14;;;24.97;21.62
77212;BME280;66206;0.000;0.000;2023-02-10T12:40:38;99873.59;;;24.97;21.38
77212;BME280;66206;0.000;0.000;2023-02-10T12:43:04;99870.29;;;25.05;21.28
77212;BME280;66206;0.000;0.000;2023-02-10T12:45:32;99869.65;;;25.03;21.31
77212;BME280;66206;0.000;0.000;2023-02-10T12:47:59;99867.11;;;24.74;21.55
77212;BME280;66206;0.000;0.000;2023-02-10T12:50:32;99870.35;;;24.83;21.50
77212;BME280;66206;0.000;0.000;2023-02-10T12:52:56;99866.84;;;25.27;21.14
77212;BME280;66206;0.000;0.000;2023-02-10T12:55:26;99866.54;;;25.25;21.04
77212;BME280;66206;0.000;0.000;2023-02-10T12:57:55;99866.10;;;25.17;21.22
77212;BME280;66206;0.000;0.000;2023-02-10T13:00:24;99863.17;;;24.81;21.47
77212;BME280;66206;0.000;0.000;2023-02-10T13:02:52;99864.61;;;24.80;21.50
77212;BME280;66206;0.000;0.000;2023-02-10T13:05:22;99863.54;;;25.05;21.31
77212;BME280;66206;0.000;0.000;2023-02-10T13:07:50;99865.11;;;25.21;21.17